sensor_id;sensor_type;location;lat;lon;timestamp;P1;durP1;ratioP1;P2;durP2;ratioP2
75073;SDS011;63652;51.526;5.080;2023-02-28T00:01:08;6.38;;;3.42;;
75073;SDS011;63652;51.526;5.080;2023-02-28T00:03:34;6.30;;;3.75;;
75073;SDS011;63652;51.526;5.080;2023-02-28T00:06:01;7.68;;;4.00;;
75073;SDS011;63652;51.526;5.080;2023-02-28T00:08:30;6.55;;;3.53;;
75073;SDS011;63652;51.526;5.080;2023-02-28T00:10:55;7.18;;;4.20;;
75073;SDS011;63652;51.526;5.080;2023-02-28T00:13:20;6.65;;;3.90;;
75073;SDS011;63652;51.526;5.080;2023-02-28T00:15:46;7.38;;;3.90;;
75073;SDS011;63652;51.526;5.080;2023-02-28T00:18:11;8.65;;;3.95;;
75073;SDS011;63652;51.526;5.080;2023-02-28T00:20:37;8.00;;;4.18;;
75073;SDS011;63652;51.526;5.080;2023-02-28T00:23:02;6.53;;;3.90;;
75073;SDS011;63652;51.526;5.080;2023-02-28T00:25:28;6.90;;;3.92;;
75073;SDS011;63652;51.526;5.080;2023-02-28T00:27:53;9.20;;;4.07;;
75073;SDS011;63652;51.526;5.080;2023-02-28T00:30:20;9.25;;;3.83;;
75073;SDS011;63652;51.526;5.080;2023-02-28T00:32:47;6.20;;;3.75;;
75073;SDS011;63652;51.526;5.080;2023-02-28T00:35:12;7.25;;;4.40;;
75073;SDS011;63652;51.526;5.080;2023-02-28T00:37:38;7.70;;;3.97;;
75073;SDS011;63652;51.526;5.080;2023-02-28T00:40:04;5.68;;;3.88;;
75073;SDS011;63652;51.526;5.080;2023-02-28T00:42:31;10.25;;;4.47;;
75073;SDS011;63652;51.526;5.080;2023-02-28T00:44:56;8.65;;;3.80;;
75073;SDS011;63652;51.526;5.080;2023-02-28T00:47:22;8.23;;;3.75;;
75073;SDS011;63652;51.526;5.080;2023-02-28T00:49:48;10.15;;;4.82;;
75073;SDS011;63652;51.526;5.080;2023-02-28T00:52:13;6.35;;;3.47;;
75073;SDS011;63652;51.526;5.080;2023-02-28T00:54:38;6.60;;;3.88;;
75073;SDS011;63652;51.526;5.080;2023-02-28T00:57:04;5.75;;;3.75;;
75073;SDS011;63652;51.526;5.080;2023-02-28T00:59:29;10.35;;;3.83;;
75073;SDS011;63652;51.526;5.080;2023-02-28T01:01:55;7.32;;;3.88;;
75073;SDS011;63652;51.526;5.080;2023-02-28T01:04:20;8.23;;;4.03;;
75073;SDS011;63652;51.526;5.080;2023-02-28T01:06:45;7.30;;;4.25;;
75073;SDS011;63652;51.526;5.080;2023-02-28T01:09:11;7.80;;;4.05;;
75073;SDS011;63652;51.526;5.080;2023-02-28T01:11:37;7.72;;;4.25;;
75073;SDS011;63652;51.526;5.080;2023-02-28T01:14:02;7.32;;;4.13;;
75073;SDS011;63652;51.526;5.080;2023-02-28T01:16:29;7.07;;;3.55;;
75073;SDS011;63652;51.526;5.080;2023-02-28T01:18:55;8.10;;;4.38;;
75073;SDS011;63652;51.526;5.080;2023-02-28T01:21:21;6.30;;;3.80;;
75073;SDS011;63652;51.526;5.080;2023-02-28T01:23:46;6.88;;;3.65;;
75073;SDS011;63652;51.526;5.080;2023-02-28T01:26:17;8.70;;;4.28;;
75073;SDS011;63652;51.526;5.080;2023-02-28T01:28:46;9.43;;;4.43;;
75073;SDS011;63652;51.526;5.080;2023-02-28T01:31:11;7.93;;;4.13;;
75073;SDS011;63652;51.526;5.080;2023-02-28T01:33:37;6.55;;;3.20;;
75073;SDS011;63652;51.526;5.080;2023-02-28T01:36:04;5.05;;;3.65;;
75073;SDS011;63652;51.526;5.080;2023-02-28T01:38:32;5.65;;;3.13;;
75073;SDS011;63652;51.526;5.080;2023-02-28T01:40:58;6.68;;;4.05;;
75073;SDS011;63652;51.526;5.080;2023-02-28T01:43:25;8.57;;;4.13;;
75073;SDS011;63652;51.526;5.080;2023-02-28T01:45:55;7.43;;;3.63;;
75073;SDS011;63652;51.526;5.080;2023-02-28T01:48:23;9.77;;;4.18;;
75073;SDS011;63652;51.526;5.080;2023-02-28T01:50:51;6.20;;;3.78;;
75073;SDS011;63652;51.526;5.080;2023-02-28T01:53:19;8.88;;;3.97;;
75073;SDS011;63652;51.526;5.080;2023-02-28T01:55:51;8.68;;;4.30;;
75073;SDS011;63652;51.526;5.080;2023-02-28T01:58:17;8.75;;;4.70;;
75073;SDS011;63652;51.526;5.080;2023-02-28T02:00:43;6.95;;;3.75;;
75073;SDS011;63652;51.526;5.080;2023-02-28T02:03:09;6.22;;;3.67;;
75073;SDS011;63652;51.526;5.080;2023-02-28T02:05:38;6.80;;;3.92;;
75073;SDS011;63652;51.526;5.080;2023-02-28T02:08:05;5.95;;;3.40;;
75073;SDS011;63652;51.526;5.080;2023-02-28T02:10:35;9.43;;;3.90;;
75073;SDS011;63652;51.526;5.080;2023-02-28T02:23:30;8.15;;;3.65;;
75073;SDS011;63652;51.526;5.080;2023-02-28T02:29:19;6.40;;;3.70;;
75073;SDS011;63652;51.526;5.080;2023-02-28T02:32:13;6.07;;;3.97;;
75073;SDS011;63652;51.526;5.080;2023-02-28T02:37:25;8.38;;;3.95;;
75073;SDS011;63652;51.526;5.080;2023-02-28T02:42:51;7.57;;;3.88;;
75073;SDS011;63652;51.526;5.080;2023-02-28T02:45:28;6.85;;;3.38;;
75073;SDS011;63652;51.526;5.080;2023-02-28T02:48:01;5.85;;;2.92;;
75073;SDS011;63652;51.526;5.080;2023-02-28T02:50:30;7.18;;;3.30;;
75073;SDS011;63652;51.526;5.080;2023-02-28T02:52:59;9.02;;;4.03;;
75073;SDS011;63652;51.526;5.080;2023-02-28T02:55:25;7.35;;;3.40;;
75073;SDS011;63652;51.526;5.080;2023-02-28T02:57:56;8.38;;;4.05;;
75073;SDS011;63652;51.526;5.080;2023-02-28T03:00:30;6.10;;;2.72;;
75073;SDS011;63652;51.526;5.080;2023-02-28T03:03:07;7.57;;;4.32;;
75073;SDS011;63652;51.526;5.080;2023-02-28T03:05:36;9.65;;;3.10;;
75073;SDS011;63652;51.526;5.080;2023-02-28T03:08:07;9.45;;;3.88;;
75073;SDS011;63652;51.526;5.080;2023-02-28T03:10:40;11.02;;;3.47;;
75073;SDS011;63652;51.526;5.080;2023-02-28T03:16:23;6.90;;;3.55;;
75073;SDS011;63652;51.526;5.080;2023-02-28T03:21:35;9.23;;;3.05;;
75073;SDS011;63652;51.526;5.080;2023-02-28T03:24:09;8.98;;;3.45;;
75073;SDS011;63652;51.526;5.080;2023-02-28T03:26:41;6.82;;;3.72;;
75073;SDS011;63652;51.526;5.080;2023-02-28T03:29:15;5.70;;;3.08;;
75073;SDS011;63652;51.526;5.080;2023-02-28T03:31:53;7.32;;;3.20;;
75073;SDS011;63652;51.526;5.080;2023-02-28T03:36:55;6.18;;;3.30;;
75073;SDS011;63652;51.526;5.080;2023-02-28T03:39:28;9.80;;;3.50;;
75073;SDS011;63652;51.526;5.080;2023-02-28T03:42:02;7.50;;;2.88;;
75073;SDS011;63652;51.526;5.080;2023-02-28T03:44:43;5.53;;;2.70;;
75073;SDS011;63652;51.526;5.080;2023-02-28T03:47:16;6.78;;;2.67;;
75073;SDS011;63652;51.526;5.080;2023-02-28T03:50:05;5.68;;;2.70;;
75073;SDS011;63652;51.526;5.080;2023-02-28T03:52:32;5.85;;;3.08;;
75073;SDS011;63652;51.526;5.080;2023-02-28T03:55:01;7.30;;;3.20;;
75073;SDS011;63652;51.526;5.080;2023-02-28T03:57:39;3.97;;;2.35;;
75073;SDS011;63652;51.526;5.080;2023-02-28T04:00:31;6.13;;;3.22;;
75073;SDS011;63652;51.526;5.080;2023-02-28T04:03:00;3.00;;;1.73;;
75073;SDS011;63652;51.526;5.080;2023-02-28T04:05:26;6.95;;;2.90;;
75073;SDS011;63652;51.526;5.080;2023-02-28T04:07:51;7.22;;;3.70;;
75073;SDS011;63652;51.526;5.080;2023-02-28T04:10:17;4.95;;;2.78;;
75073;SDS011;63652;51.526;5.080;2023-02-28T04:12:43;3.90;;;2.67;;
75073;SDS011;63652;51.526;5.080;2023-02-28T04:15:08;9.27;;;3.55;;
75073;SDS011;63652;51.526;5.080;2023-02-28T04:17:35;7.15;;;3.22;;
75073;SDS011;63652;51.526;5.080;2023-02-28T04:20:00;6.20;;;3.00;;
75073;SDS011;63652;51.526;5.080;2023-02-28T04:22:26;6.50;;;3.33;;
75073;SDS011;63652;51.526;5.080;2023-02-28T04:24:51;6.00;;;2.97;;
75073;SDS011;63652;51.526;5.080;2023-02-28T04:27:18;4.97;;;2.30;;
75073;SDS011;63652;51.526;5.080;2023-02-28T04:29:44;6.55;;;3.97;;
75073;SDS011;63652;51.526;5.080;2023-02-28T04:32:09;6.07;;;3.35;;
75073;SDS011;63652;51.526;5.080;2023-02-28T04:34:35;5.25;;;3.20;;
75073;SDS011;63652;51.526;5.080;2023-02-28T04:37:01;4.70;;;2.53;;
75073;SDS011;63652;51.526;5.080;2023-02-28T04:39:28;4.10;;;2.00;;
75073;SDS011;63652;51.526;5.080;2023-02-28T04:41:54;6.22;;;3.15;;
75073;SDS011;63652;51.526;5.080;2023-02-28T04:44:19;7.40;;;3.47;;
75073;SDS011;63652;51.526;5.080;2023-02-28T04:46:47;7.93;;;3.55;;
75073;SDS011;63652;51.526;5.080;2023-02-28T04:49:13;3.97;;;2.28;;
75073;SDS011;63652;51.526;5.080;2023-02-28T04:51:39;4.75;;;3.30;;
75073;SDS011;63652;51.526;5.080;2023-02-28T04:54:05;5.55;;;3.20;;
75073;SDS011;63652;51.526;5.080;2023-02-28T04:56:30;6.28;;;3.50;;
75073;SDS011;63652;51.526;5.080;2023-02-28T04:58:56;6.78;;;2.92;;
75073;SDS011;63652;51.526;5.080;2023-02-28T05:03:48;4.88;;;2.97;;
75073;SDS011;63652;51.526;5.080;2023-02-28T05:06:14;6.75;;;3.13;;
75073;SDS011;63652;51.526;5.080;2023-02-28T05:08:40;6.30;;;3.75;;
75073;SDS011;63652;51.526;5.080;2023-02-28T05:11:06;6.53;;;2.90;;
75073;SDS011;63652;51.526;5.080;2023-02-28T05:13:41;4.85;;;2.50;;
75073;SDS011;63652;51.526;5.080;2023-02-28T05:16:06;10.18;;;3.97;;
75073;SDS011;63652;51.526;5.080;2023-02-28T05:18:32;8.05;;;4.05;;
75073;SDS011;63652;51.526;5.080;2023-02-28T05:20:57;6.10;;;3.33;;
75073;SDS011;63652;51.526;5.080;2023-02-28T05:23:22;7.50;;;3.55;;
75073;SDS011;63652;51.526;5.080;2023-02-28T05:25:48;7.18;;;3.92;;
75073;SDS011;63652;51.526;5.080;2023-02-28T05:28:13;5.68;;;3.55;;
75073;SDS011;63652;51.526;5.080;2023-02-28T05:30:41;7.93;;;3.67;;
75073;SDS011;63652;51.526;5.080;2023-02-28T05:33:10;7.25;;;3.38;;
75073;SDS011;63652;51.526;5.080;2023-02-28T05:35:37;5.05;;;2.97;;
75073;SDS011;63652;51.526;5.080;2023-02-28T05:38:03;6.30;;;3.25;;
75073;SDS011;63652;51.526;5.080;2023-02-28T05:40:29;7.38;;;3.53;;
75073;SDS011;63652;51.526;5.080;2023-02-28T05:42:54;5.53;;;3.38;;
75073;SDS011;63652;51.526;5.080;2023-02-28T05:45:19;6.13;;;2.97;;
75073;SDS011;63652;51.526;5.080;2023-02-28T05:47:45;6.30;;;3.22;;
75073;SDS011;63652;51.526;5.080;2023-02-28T05:50:10;8.20;;;3.45;;
75073;SDS011;63652;51.526;5.080;2023-02-28T05:52:36;6.75;;;3.22;;
75073;SDS011;63652;51.526;5.080;2023-02-28T05:55:02;5.57;;;2.85;;
75073;SDS011;63652;51.526;5.080;2023-02-28T05:57:28;4.60;;;2.67;;
75073;SDS011;63652;51.526;5.080;2023-02-28T05:59:53;4.53;;;2.65;;
75073;SDS011;63652;51.526;5.080;2023-02-28T06:02:19;8.68;;;3.00;;
75073;SDS011;63652;51.526;5.080;2023-02-28T06:04:44;5.57;;;3.35;;
75073;SDS011;63652;51.526;5.080;2023-02-28T06:07:10;6.88;;;2.53;;
75073;SDS011;63652;51.526;5.080;2023-02-28T06:09:36;5.18;;;2.50;;
75073;SDS011;63652;51.526;5.080;2023-02-28T06:12:02;6.22;;;3.35;;
75073;SDS011;63652;51.526;5.080;2023-02-28T06:14:30;6.88;;;2.88;;
75073;SDS011;63652;51.526;5.080;2023-02-28T06:16:57;6.78;;;2.83;;
75073;SDS011;63652;51.526;5.080;2023-02-28T06:19:23;4.88;;;2.53;;
75073;SDS011;63652;51.526;5.080;2023-02-28T06:21:51;6.70;;;2.72;;
75073;SDS011;63652;51.526;5.080;2023-02-28T06:24:18;5.88;;;3.08;;
75073;SDS011;63652;51.526;5.080;2023-02-28T06:26:47;7.90;;;3.20;;
75073;SDS011;63652;51.526;5.080;2023-02-28T06:29:13;7.25;;;3.13;;
75073;SDS011;63652;51.526;5.080;2023-02-28T06:31:42;6.57;;;2.83;;
75073;SDS011;63652;51.526;5.080;2023-02-28T06:34:09;8.40;;;3.10;;
75073;SDS011;63652;51.526;5.080;2023-02-28T06:36:36;6.15;;;3.08;;
75073;SDS011;63652;51.526;5.080;2023-02-28T06:39:02;5.05;;;2.92;;
75073;SDS011;63652;51.526;5.080;2023-02-28T06:41:27;6.38;;;2.95;;
75073;SDS011;63652;51.526;5.080;2023-02-28T06:43:53;6.00;;;2.78;;
75073;SDS011;63652;51.526;5.080;2023-02-28T06:46:18;8.93;;;3.75;;
75073;SDS011;63652;51.526;5.080;2023-02-28T06:48:47;6.28;;;3.22;;
75073;SDS011;63652;51.526;5.080;2023-02-28T06:51:14;8.43;;;3.45;;
75073;SDS011;63652;51.526;5.080;2023-02-28T06:53:45;7.03;;;3.15;;
75073;SDS011;63652;51.526;5.080;2023-02-28T06:56:12;8.43;;;3.35;;
75073;SDS011;63652;51.526;5.080;2023-02-28T06:58:41;8.50;;;3.20;;
75073;SDS011;63652;51.526;5.080;2023-02-28T07:01:07;9.45;;;2.95;;
75073;SDS011;63652;51.526;5.080;2023-02-28T07:03:34;6.90;;;3.10;;
75073;SDS011;63652;51.526;5.080;2023-02-28T07:06:00;4.55;;;2.85;;
75073;SDS011;63652;51.526;5.080;2023-02-28T07:08:26;7.07;;;3.17;;
75073;SDS011;63652;51.526;5.080;2023-02-28T07:10:52;6.72;;;3.20;;
75073;SDS011;63652;51.526;5.080;2023-02-28T07:13:18;5.57;;;3.22;;
75073;SDS011;63652;51.526;5.080;2023-02-28T07:15:44;4.00;;;2.28;;
75073;SDS011;63652;51.526;5.080;2023-02-28T07:18:09;4.30;;;2.65;;
75073;SDS011;63652;51.526;5.080;2023-02-28T07:20:34;6.10;;;2.47;;
75073;SDS011;63652;51.526;5.080;2023-02-28T07:23:00;5.05;;;3.05;;
75073;SDS011;63652;51.526;5.080;2023-02-28T07:25:26;3.83;;;2.17;;
75073;SDS011;63652;51.526;5.080;2023-02-28T07:27:52;4.82;;;2.53;;
75073;SDS011;63652;51.526;5.080;2023-02-28T07:30:18;6.70;;;2.33;;
75073;SDS011;63652;51.526;5.080;2023-02-28T07:32:44;8.57;;;3.10;;
75073;SDS011;63652;51.526;5.080;2023-02-28T07:35:09;5.25;;;2.45;;
75073;SDS011;63652;51.526;5.080;2023-02-28T07:37:35;9.13;;;2.78;;
75073;SDS011;63652;51.526;5.080;2023-02-28T07:40:04;2.88;;;1.67;;
75073;SDS011;63652;51.526;5.080;2023-02-28T07:42:33;7.82;;;3.65;;
75073;SDS011;63652;51.526;5.080;2023-02-28T07:45:02;5.72;;;2.10;;
75073;SDS011;63652;51.526;5.080;2023-02-28T07:47:29;6.55;;;2.10;;
75073;SDS011;63652;51.526;5.080;2023-02-28T07:49:55;4.32;;;2.45;;
75073;SDS011;63652;51.526;5.080;2023-02-28T07:52:20;2.90;;;1.38;;
75073;SDS011;63652;51.526;5.080;2023-02-28T07:54:46;7.75;;;2.30;;
75073;SDS011;63652;51.526;5.080;2023-02-28T07:57:11;3.70;;;1.92;;
75073;SDS011;63652;51.526;5.080;2023-02-28T07:59:37;4.03;;;1.63;;
75073;SDS011;63652;51.526;5.080;2023-02-28T08:02:02;3.38;;;1.77;;
75073;SDS011;63652;51.526;5.080;2023-02-28T08:04:27;3.63;;;1.80;;
75073;SDS011;63652;51.526;5.080;2023-02-28T08:06:53;3.53;;;1.70;;
75073;SDS011;63652;51.526;5.080;2023-02-28T08:09:21;3.85;;;1.98;;
75073;SDS011;63652;51.526;5.080;2023-02-28T08:11:46;3.97;;;1.52;;
75073;SDS011;63652;51.526;5.080;2023-02-28T08:14:12;5.22;;;1.63;;
75073;SDS011;63652;51.526;5.080;2023-02-28T08:16:37;5.30;;;1.83;;
75073;SDS011;63652;51.526;5.080;2023-02-28T08:19:04;2.70;;;1.38;;
75073;SDS011;63652;51.526;5.080;2023-02-28T08:21:30;2.60;;;1.63;;
75073;SDS011;63652;51.526;5.080;2023-02-28T08:23:55;4.18;;;1.50;;
75073;SDS011;63652;51.526;5.080;2023-02-28T08:26:22;3.25;;;1.80;;
75073;SDS011;63652;51.526;5.080;2023-02-28T08:28:47;2.80;;;1.52;;
75073;SDS011;63652;51.526;5.080;2023-02-28T08:31:13;3.72;;;1.45;;
75073;SDS011;63652;51.526;5.080;2023-02-28T08:33:40;2.58;;;1.35;;
75073;SDS011;63652;51.526;5.080;2023-02-28T08:36:07;3.65;;;1.98;;
75073;SDS011;63652;51.526;5.080;2023-02-28T08:38:33;2.03;;;1.05;;
75073;SDS011;63652;51.526;5.080;2023-02-28T08:40:59;2.45;;;1.23;;
75073;SDS011;63652;51.526;5.080;2023-02-28T08:43:26;2.33;;;1.13;;
75073;SDS011;63652;51.526;5.080;2023-02-28T08:45:52;3.08;;;1.73;;
75073;SDS011;63652;51.526;5.080;2023-02-28T08:48:18;3.80;;;1.48;;
75073;SDS011;63652;51.526;5.080;2023-02-28T08:50:43;3.60;;;1.60;;
75073;SDS011;63652;51.526;5.080;2023-02-28T08:53:09;3.05;;;1.65;;
75073;SDS011;63652;51.526;5.080;2023-02-28T08:55:35;2.83;;;1.35;;
75073;SDS011;63652;51.526;5.080;2023-02-28T08:58:00;3.10;;;1.48;;
75073;SDS011;63652;51.526;5.080;2023-02-28T09:00:26;4.95;;;1.70;;
75073;SDS011;63652;51.526;5.080;2023-02-28T09:02:52;3.45;;;1.38;;
75073;SDS011;63652;51.526;5.080;2023-02-28T09:05:18;4.28;;;1.38;;
75073;SDS011;63652;51.526;5.080;2023-02-28T09:07:43;3.20;;;1.83;;
75073;SDS011;63652;51.526;5.080;2023-02-28T09:10:09;3.50;;;1.88;;
75073;SDS011;63652;51.526;5.080;2023-02-28T09:12:35;3.45;;;1.85;;
75073;SDS011;63652;51.526;5.080;2023-02-28T09:15:01;3.00;;;1.23;;
75073;SDS011;63652;51.526;5.080;2023-02-28T09:17:27;3.88;;;1.73;;
75073;SDS011;63652;51.526;5.080;2023-02-28T09:19:52;2.30;;;1.25;;
75073;SDS011;63652;51.526;5.080;2023-02-28T09:22:18;1.88;;;1.00;;
75073;SDS011;63652;51.526;5.080;2023-02-28T09:24:44;3.45;;;1.00;;
75073;SDS011;63652;51.526;5.080;2023-02-28T09:27:09;1.35;;;0.82;;
75073;SDS011;63652;51.526;5.080;2023-02-28T09:29:35;2.25;;;0.90;;
75073;SDS011;63652;51.526;5.080;2023-02-28T09:32:01;4.03;;;1.40;;
75073;SDS011;63652;51.526;5.080;2023-02-28T09:34:27;4.03;;;1.02;;
75073;SDS011;63652;51.526;5.080;2023-02-28T09:36:55;2.80;;;1.00;;
75073;SDS011;63652;51.526;5.080;2023-02-28T09:39:21;2.20;;;1.10;;
75073;SDS011;63652;51.526;5.080;2023-02-28T09:41:48;4.15;;;1.20;;
75073;SDS011;63652;51.526;5.080;2023-02-28T09:47:33;2.33;;;1.40;;
75073;SDS011;63652;51.526;5.080;2023-02-28T09:50:03;3.35;;;1.30;;
75073;SDS011;63652;51.526;5.080;2023-02-28T09:52:36;1.92;;;1.13;;
75073;SDS011;63652;51.526;5.080;2023-02-28T10:01:03;4.55;;;1.33;;
75073;SDS011;63652;51.526;5.080;2023-02-28T10:03:36;2.95;;;0.90;;
75073;SDS011;63652;51.526;5.080;2023-02-28T10:06:07;2.55;;;1.30;;
75073;SDS011;63652;51.526;5.080;2023-02-28T10:08:38;3.45;;;1.45;;
75073;SDS011;63652;51.526;5.080;2023-02-28T10:11:10;2.03;;;1.25;;
75073;SDS011;63652;51.526;5.080;2023-02-28T10:16:16;3.05;;;1.20;;
75073;SDS011;63652;51.526;5.080;2023-02-28T10:18:52;2.63;;;0.98;;
75073;SDS011;63652;51.526;5.080;2023-02-28T10:21:26;1.90;;;1.00;;
75073;SDS011;63652;51.526;5.080;2023-02-28T10:23:58;2.22;;;1.30;;
75073;SDS011;63652;51.526;5.080;2023-02-28T10:26:27;3.38;;;1.23;;
75073;SDS011;63652;51.526;5.080;2023-02-28T10:28:54;3.72;;;1.27;;
75073;SDS011;63652;51.526;5.080;2023-02-28T10:31:19;1.90;;;1.00;;
75073;SDS011;63652;51.526;5.080;2023-02-28T10:33:45;3.17;;;1.30;;
75073;SDS011;63652;51.526;5.080;2023-02-28T10:36:15;1.73;;;0.98;;
75073;SDS011;63652;51.526;5.080;2023-02-28T10:38:43;5.72;;;2.20;;
75073;SDS011;63652;51.526;5.080;2023-02-28T10:41:13;4.32;;;1.38;;
75073;SDS011;63652;51.526;5.080;2023-02-28T10:43:41;2.75;;;1.45;;
75073;SDS011;63652;51.526;5.080;2023-02-28T10:48:47;1.98;;;0.95;;
75073;SDS011;63652;51.526;5.080;2023-02-28T10:51:36;2.80;;;1.25;;
75073;SDS011;63652;51.526;5.080;2023-02-28T10:54:03;2.55;;;1.33;;
75073;SDS011;63652;51.526;5.080;2023-02-28T10:56:29;2.40;;;1.25;;
75073;SDS011;63652;51.526;5.080;2023-02-28T10:58:56;1.95;;;1.00;;
75073;SDS011;63652;51.526;5.080;2023-02-28T11:03:57;1.83;;;0.95;;
75073;SDS011;63652;51.526;5.080;2023-02-28T11:06:24;2.15;;;1.08;;
75073;SDS011;63652;51.526;5.080;2023-02-28T11:08:53;2.72;;;1.02;;
75073;SDS011;63652;51.526;5.080;2023-02-28T11:11:20;3.03;;;1.27;;
75073;SDS011;63652;51.526;5.080;2023-02-28T11:13:46;3.28;;;0.90;;
75073;SDS011;63652;51.526;5.080;2023-02-28T11:16:13;4.03;;;1.50;;
75073;SDS011;63652;51.526;5.080;2023-02-28T11:18:41;2.20;;;1.13;;
75073;SDS011;63652;51.526;5.080;2023-02-28T11:21:21;3.25;;;1.02;;
75073;SDS011;63652;51.526;5.080;2023-02-28T11:23:51;2.28;;;0.93;;
75073;SDS011;63652;51.526;5.080;2023-02-28T11:26:35;1.77;;;0.73;;
75073;SDS011;63652;51.526;5.080;2023-02-28T11:29:24;2.17;;;1.00;;
75073;SDS011;63652;51.526;5.080;2023-02-28T11:34:38;1.83;;;0.75;;
75073;SDS011;63652;51.526;5.080;2023-02-28T11:37:08;2.92;;;1.30;;
75073;SDS011;63652;51.526;5.080;2023-02-28T11:39:36;2.05;;;0.95;;
75073;SDS011;63652;51.526;5.080;2023-02-28T11:47:20;2.33;;;1.10;;
75073;SDS011;63652;51.526;5.080;2023-02-28T11:52:57;2.30;;;1.30;;
75073;SDS011;63652;51.526;5.080;2023-02-28T11:55:26;1.42;;;0.95;;
75073;SDS011;63652;51.526;5.080;2023-02-28T12:00:40;3.30;;;1.10;;
75073;SDS011;63652;51.526;5.080;2023-02-28T12:06:23;3.63;;;1.33;;
75073;SDS011;63652;51.526;5.080;2023-02-28T12:20:43;2.15;;;1.00;;
75073;SDS011;63652;51.526;5.080;2023-02-28T12:26:41;1.90;;;0.73;;
75073;SDS011;63652;51.526;5.080;2023-02-28T12:29:26;5.65;;;1.35;;
75073;SDS011;63652;51.526;5.080;2023-02-28T12:32:11;2.30;;;1.25;;
75073;SDS011;63652;51.526;5.080;2023-02-28T12:34:42;3.10;;;1.13;;
75073;SDS011;63652;51.526;5.080;2023-02-28T12:37:13;3.28;;;1.17;;
75073;SDS011;63652;51.526;5.080;2023-02-28T12:39:45;2.45;;;1.20;;
75073;SDS011;63652;51.526;5.080;2023-02-28T12:42:30;2.60;;;1.25;;
75073;SDS011;63652;51.526;5.080;2023-02-28T12:47:45;3.65;;;1.40;;
75073;SDS011;63652;51.526;5.080;2023-02-28T12:50:15;2.63;;;1.00;;
75073;SDS011;63652;51.526;5.080;2023-02-28T12:52:59;2.70;;;1.25;;
75073;SDS011;63652;51.526;5.080;2023-02-28T12:58:08;2.20;;;0.77;;
75073;SDS011;63652;51.526;5.080;2023-02-28T13:01:14;2.75;;;0.73;;
75073;SDS011;63652;51.526;5.080;2023-02-28T13:09:16;2.35;;;0.95;;
75073;SDS011;63652;51.526;5.080;2023-02-28T13:11:46;3.72;;;1.55;;
75073;SDS011;63652;51.526;5.080;2023-02-28T13:14:20;2.35;;;1.27;;
75073;SDS011;63652;51.526;5.080;2023-02-28T13:19:55;2.75;;;1.20;;
75073;SDS011;63652;51.526;5.080;2023-02-28T13:24:52;3.33;;;1.40;;
75073;SDS011;63652;51.526;5.080;2023-02-28T13:27:31;2.40;;;1.40;;
75073;SDS011;63652;51.526;5.080;2023-02-28T13:33:33;3.58;;;1.23;;
75073;SDS011;63652;51.526;5.080;2023-02-28T13:52:30;3.30;;;1.70;;
75073;SDS011;63652;51.526;5.080;2023-02-28T13:57:56;2.25;;;1.40;;
75073;SDS011;63652;51.526;5.080;2023-02-28T14:00:13;2.80;;;1.52;;
75073;SDS011;63652;51.526;5.080;2023-02-28T14:08:35;3.85;;;0.95;;
75073;SDS011;63652;51.526;5.080;2023-02-28T14:11:09;3.47;;;1.73;;
75073;SDS011;63652;51.526;5.080;2023-02-28T14:13:49;5.53;;;1.55;;
75073;SDS011;63652;51.526;5.080;2023-02-28T14:16:23;3.50;;;1.52;;
75073;SDS011;63652;51.526;5.080;2023-02-28T14:18:55;3.50;;;1.50;;
75073;SDS011;63652;51.526;5.080;2023-02-28T14:21:27;4.28;;;1.60;;
75073;SDS011;63652;51.526;5.080;2023-02-28T14:29:29;4.35;;;1.60;;
75073;SDS011;63652;51.526;5.080;2023-02-28T14:32:15;2.15;;;1.20;;
75073;SDS011;63652;51.526;5.080;2023-02-28T14:34:54;4.72;;;1.67;;
75073;SDS011;63652;51.526;5.080;2023-02-28T14:37:26;4.80;;;2.00;;
75073;SDS011;63652;51.526;5.080;2023-02-28T14:39:53;2.90;;;1.55;;
75073;SDS011;63652;51.526;5.080;2023-02-28T14:42:28;3.63;;;1.52;;
75073;SDS011;63652;51.526;5.080;2023-02-28T14:44:58;3.25;;;1.83;;
75073;SDS011;63652;51.526;5.080;2023-02-28T14:47:23;2.72;;;1.50;;
75073;SDS011;63652;51.526;5.080;2023-02-28T14:49:53;3.50;;;1.65;;
75073;SDS011;63652;51.526;5.080;2023-02-28T14:52:20;3.28;;;1.75;;
75073;SDS011;63652;51.526;5.080;2023-02-28T14:55:12;2.03;;;0.88;;
75073;SDS011;63652;51.526;5.080;2023-02-28T14:57:42;2.47;;;1.17;;
75073;SDS011;63652;51.526;5.080;2023-02-28T15:00:22;2.83;;;1.50;;
75073;SDS011;63652;51.526;5.080;2023-02-28T15:02:49;3.80;;;1.63;;
75073;SDS011;63652;51.526;5.080;2023-02-28T15:05:24;5.00;;;1.73;;
75073;SDS011;63652;51.526;5.080;2023-02-28T15:10:44;3.53;;;1.75;;
75073;SDS011;63652;51.526;5.080;2023-02-28T15:13:14;3.38;;;1.70;;
75073;SDS011;63652;51.526;5.080;2023-02-28T15:18:32;3.72;;;1.67;;
75073;SDS011;63652;51.526;5.080;2023-02-28T15:21:11;4.32;;;1.85;;
75073;SDS011;63652;51.526;5.080;2023-02-28T15:23:38;7.88;;;1.80;;
75073;SDS011;63652;51.526;5.080;2023-02-28T15:26:06;1.35;;;0.80;;
75073;SDS011;63652;51.526;5.080;2023-02-28T15:28:31;3.08;;;1.40;;
75073;SDS011;63652;51.526;5.080;2023-02-28T15:31:01;4.15;;;1.60;;
75073;SDS011;63652;51.526;5.080;2023-02-28T15:33:32;4.78;;;1.83;;
75073;SDS011;63652;51.526;5.080;2023-02-28T15:36:15;5.15;;;1.65;;
75073;SDS011;63652;51.526;5.080;2023-02-28T15:38:42;3.35;;;1.55;;
75073;SDS011;63652;51.526;5.080;2023-02-28T15:41:28;4.38;;;1.90;;
75073;SDS011;63652;51.526;5.080;2023-02-28T15:47:06;3.00;;;1.42;;
75073;SDS011;63652;51.526;5.080;2023-02-28T15:49:49;3.42;;;2.10;;
75073;SDS011;63652;51.526;5.080;2023-02-28T15:52:17;4.32;;;1.70;;
75073;SDS011;63652;51.526;5.080;2023-02-28T15:54:44;5.25;;;2.20;;
75073;SDS011;63652;51.526;5.080;2023-02-28T15:57:13;3.80;;;1.95;;
75073;SDS011;63652;51.526;5.080;2023-02-28T15:59:42;2.25;;;1.05;;
75073;SDS011;63652;51.526;5.080;2023-02-28T16:02:17;2.42;;;1.38;;
75073;SDS011;63652;51.526;5.080;2023-02-28T16:07:31;6.68;;;1.40;;
75073;SDS011;63652;51.526;5.080;2023-02-28T16:09:56;3.70;;;1.90;;
75073;SDS011;63652;51.526;5.080;2023-02-28T16:12:24;3.90;;;2.40;;
75073;SDS011;63652;51.526;5.080;2023-02-28T16:14:54;2.78;;;1.50;;
75073;SDS011;63652;51.526;5.080;2023-02-28T16:17:22;4.03;;;1.88;;
75073;SDS011;63652;51.526;5.080;2023-02-28T16:19:49;4.28;;;1.80;;
75073;SDS011;63652;51.526;5.080;2023-02-28T16:22:15;5.22;;;1.80;;
75073;SDS011;63652;51.526;5.080;2023-02-28T16:24:40;3.63;;;1.80;;
75073;SDS011;63652;51.526;5.080;2023-02-28T16:27:06;3.67;;;1.80;;
75073;SDS011;63652;51.526;5.080;2023-02-28T16:29:33;5.85;;;1.67;;
75073;SDS011;63652;51.526;5.080;2023-02-28T16:32:00;3.97;;;1.38;;
75073;SDS011;63652;51.526;5.080;2023-02-28T16:34:25;2.67;;;1.42;;
75073;SDS011;63652;51.526;5.080;2023-02-28T16:36:51;3.10;;;1.88;;
75073;SDS011;63652;51.526;5.080;2023-02-28T16:39:16;2.92;;;1.77;;
75073;SDS011;63652;51.526;5.080;2023-02-28T16:41:42;3.42;;;1.92;;
75073;SDS011;63652;51.526;5.080;2023-02-28T16:44:21;3.80;;;1.88;;
75073;SDS011;63652;51.526;5.080;2023-02-28T16:46:51;3.85;;;1.63;;
75073;SDS011;63652;51.526;5.080;2023-02-28T16:49:17;2.58;;;1.70;;
75073;SDS011;63652;51.526;5.080;2023-02-28T16:51:43;3.90;;;1.70;;
75073;SDS011;63652;51.526;5.080;2023-02-28T16:54:08;4.70;;;1.95;;
75073;SDS011;63652;51.526;5.080;2023-02-28T16:56:34;4.93;;;2.30;;
75073;SDS011;63652;51.526;5.080;2023-02-28T16:59:00;2.72;;;1.75;;
75073;SDS011;63652;51.526;5.080;2023-02-28T17:01:26;4.47;;;1.83;;
75073;SDS011;63652;51.526;5.080;2023-02-28T17:03:53;2.72;;;1.52;;
75073;SDS011;63652;51.526;5.080;2023-02-28T17:06:20;4.70;;;1.90;;
75073;SDS011;63652;51.526;5.080;2023-02-28T17:08:48;4.65;;;2.20;;
75073;SDS011;63652;51.526;5.080;2023-02-28T17:11:14;6.22;;;1.70;;
75073;SDS011;63652;51.526;5.080;2023-02-28T17:13:40;4.40;;;1.95;;
75073;SDS011;63652;51.526;5.080;2023-02-28T17:16:07;2.90;;;1.45;;
75073;SDS011;63652;51.526;5.080;2023-02-28T17:18:38;3.05;;;1.85;;